Time;durP1;ratioP1;P1;durP2;ratioP2;P2;SDS_P1;SDS_P2;PMS_P1;PMS_P2;Temp;Humidity;BMP_temperature;BMP_pressure;BME280_temperature;BME280_humidity;BME280_pressure;Samples;Min_cycle;Max_cycle;Signal;HPM_P1;HPM_P2
2022/06/15 00:00:34;;;;;;;4.45;1.70;;;;;;;14.35;97.94;98737.81;5030279;28;20041;-37
2022/06/15 00:03:00;;;;;;;4.07;1.77;;;;;;;14.35;100.00;98736.97;5047781;28;20048;-37
2022/06/15 00:05:26;;;;;;;2.92;1.60;;;;;;;14.32;96.84;98745.84;5026394;28;20045;-37
2022/06/15 00:07:52;;;;;;;3.13;1.60;;;;;;;14.31;96.27;98741.56;5033407;28;20079;-37
2022/06/15 00:10:19;;;;;;;4.15;1.95;;;;;;;14.29;100.00;98748.66;5030286;28;20183;-37
2022/06/15 00:12:45;;;;;;;5.32;2.30;;;;;;;14.18;99.20;98732.00;5029623;28;20049;-38
2022/06/15 00:15:10;;;;;;;5.20;1.60;;;;;;;14.22;100.00;98739.53;5037654;28;20041;-37
2022/06/15 00:17:36;;;;;;;2.47;1.75;;;;;;;14.10;100.00;98721.19;5032902;28;20052;-37
2022/06/15 00:20:02;;;;;;;4.68;1.70;;;;;;;14.14;98.88;98736.56;5044777;28;20049;-37
2022/06/15 00:22:28;;;;;;;2.33;1.50;;;;;;;14.11;99.65;98738.53;5033696;28;20120;-38
2022/06/15 00:24:54;;;;;;;3.78;1.77;;;;;;;14.07;100.00;98750.97;5033542;28;20619;-37
2022/06/15 00:27:20;;;;;;;4.90;1.75;;;;;;;13.99;100.00;98734.94;5065616;28;20567;-37
2022/06/15 00:29:46;;;;;;;4.03;1.83;;;;;;;14.03;97.47;98738.22;5035175;28;20132;-36
2022/06/15 00:32:11;;;;;;;6.82;2.63;;;;;;;14.00;100.00;98747.06;5042049;28;20033;-36
2022/06/15 00:34:38;;;;;;;4.20;1.73;;;;;;;13.90;100.00;98741.59;5038728;28;20041;-36
2022/06/15 00:37:05;;;;;;;6.45;2.40;;;;;;;13.97;100.00;98757.72;5032527;28;20040;-36
2022/06/15 00:39:32;;;;;;;3.53;1.90;;;;;;;13.94;100.00;98756.13;5040482;28;20041;-37
2022/06/15 00:41:58;;;;;;;2.55;1.75;;;;;;;13.84;100.00;98736.75;5041861;28;20041;-37
2022/06/15 00:44:24;;;;;;;3.70;2.15;;;;;;;13.90;100.00;98752.03;5053145;28;20523;-37
2022/06/15 00:47:01;;;;;;;3.67;1.83;;;;;;;13.89;100.00;98749.50;5045339;28;20037;-37
2022/06/15 00:49:35;;;;;;;3.30;1.90;;;;;;;13.86;100.00;98747.94;5033042;28;20095;-37
2022/06/15 00:52:28;;;;;;;3.00;2.20;;;;;;;13.86;100.00;98747.94;5065556;28;20045;-37
2022/06/15 00:54:54;;;;;;;3.13;1.80;;;;;;;13.85;97.17;98755.88;5044925;28;20049;-37
2022/06/15 00:57:20;;;;;;;4.38;1.80;;;;;;;13.85;98.89;98759.31;5066993;28;20509;-37
2022/06/15 01:00:08;;;;;;;3.42;1.90;;;;;;;13.85;98.35;98759.31;5066669;28;20136;-35
2022/06/15 01:02:36;;;;;;;2.97;2.05;;;;;;;13.84;97.84;98752.41;5035829;28;20488;-35
2022/06/15 01:05:13;;;;;;;2.78;1.80;;;;;;;13.84;100.00;98754.19;5034582;28;20569;-38
2022/06/15 01:08:02;;;;;;;3.10;1.90;;;;;;;13.82;98.59;98748.19;5049883;28;20041;-36
2022/06/15 01:10:43;;;;;;;3.10;1.73;;;;;;;13.82;93.64;98756.03;5018793;28;20420;-36
2022/06/15 01:13:48;;;;;;;3.65;2.10;;;;;;;13.81;95.35;98755.22;5026457;28;20068;-36
2022/06/15 01:16:51;;;;;;;3.28;1.50;;;;;;;13.82;97.69;98750.81;5065133;28;20053;-36
2022/06/15 01:19:27;;;;;;;3.58;1.60;;;;;;;13.82;93.67;98749.03;5022533;28;20091;-36
2022/06/15 01:22:19;;;;;;;1.98;1.40;;;;;;;13.81;91.81;98747.41;5049447;28;20045;-36
2022/06/15 01:24:57;;;;;;;3.38;1.60;;;;;;;13.85;100.00;98746.25;5050936;28;20068;-37
2022/06/15 01:27:38;;;;;;;5.18;1.70;;;;;;;13.84;100.00;98749.81;5064727;28;20049;-36
2022/06/15 01:30:13;;;;;;;5.03;2.30;;;;;;;13.84;100.00;98749.81;5035277;28;20057;-36
2022/06/15 01:33:07;;;;;;;5.85;2.15;;;;;;;13.82;100.00;98746.44;5045160;28;20041;-36
2022/06/15 01:35:45;;;;;;;3.65;2.10;;;;;;;13.80;100.00;98742.25;5014446;28;20045;-36
2022/06/15 01:38:21;;;;;;;5.97;2.08;;;;;;;13.78;100.00;98741.50;5040443;28;20052;-36
2022/06/15 01:40:57;;;;;;;4.43;1.80;;;;;;;13.77;99.00;98742.44;5034043;28;20083;-36
2022/06/15 01:43:26;;;;;;;4.82;1.92;;;;;;;13.71;100.00;98733.19;5068201;28;20115;-38
2022/06/15 01:45:53;;;;;;;4.68;1.95;;;;;;;13.73;94.45;98733.94;5044823;28;20045;-36
2022/06/15 01:48:19;;;;;;;3.53;1.80;;;;;;;13.74;94.14;98735.63;5036625;28;20044;-36
2022/06/15 01:50:49;;;;;;;4.57;1.77;;;;;;;13.73;98.25;98746.16;5042127;28;20080;-36
2022/06/15 01:53:18;;;;;;;5.43;2.05;;;;;;;13.76;93.99;98746.00;5024525;28;20048;-36
2022/06/15 01:55:55;;;;;;;5.78;1.60;;;;;;;13.75;91.93;98744.31;5048003;28;20136;-37
2022/06/15 01:58:24;;;;;;;7.30;2.15;;;;;;;13.73;94.34;98747.00;5019269;28;20060;-36
2022/06/15 02:00:56;;;;;;;;;;;;;;;13.73;93.72;98735.72;5020831;28;20051;-36
2022/06/15 02:03:41;;;;;;;1.88;1.52;;;;;;;13.71;93.08;98741.03;5050547;28;19922;-37
2022/06/15 02:06:14;;;;;;;4.40;1.75;;;;;;;13.58;91.28;98727.91;5040535;28;20044;-36
2022/06/15 02:08:53;;;;;;;2.38;1.52;;;;;;;13.70;90.22;98747.22;5017546;28;20046;-37
2022/06/15 02:11:34;;;;;;;2.80;1.70;;;;;;;13.71;90.05;98737.59;5030968;28;20052;-37
2022/06/15 02:14:20;;;;;;;4.03;1.90;;;;;;;13.71;89.75;98741.03;5054911;28;20041;-37
2022/06/15 02:16:48;;;;;;;3.83;1.70;;;;;;;13.72;92.85;98739.25;5046522;28;20048;-37
2022/06/15 02:19:16;;;;;;;4.07;1.60;;;;;;;13.69;92.09;98737.69;5049276;28;20037;-37
2022/06/15 02:21:45;;;;;;;3.22;1.98;;;;;;;13.74;96.84;98746.09;5033051;28;20128;-36
2022/06/15 02:24:11;;;;;;;2.95;1.70;;;;;;;13.77;97.05;98745.03;5023637;28;20049;-37
2022/06/15 02:26:39;;;;;;;3.20;1.48;;;;;;;13.76;96.15;98739.00;5024850;28;20044;-36
2022/06/15 02:29:10;;;;;;;4.13;1.60;;;;;;;13.75;91.04;98739.94;5033120;28;20044;-36
2022/06/15 02:31:41;;;;;;;6.38;1.63;;;;;;;13.74;91.51;98734.78;5044699;28;20520;-36
2022/06/15 02:34:10;;;;;;;2.47;1.60;;;;;;;13.75;94.77;98732.09;5041710;28;20045;-37
2022/06/15 02:36:36;;;;;;;6.10;2.08;;;;;;;13.76;96.72;98731.16;5016938;28;20389;-36
2022/06/15 02:39:06;;;;;;;3.13;1.50;;;;;;;13.76;88.69;98736.38;5031710;28;20464;-38
2022/06/15 02:41:32;;;;;;;6.13;1.38;;;;;;;13.75;86.11;98737.31;5032034;28;20524;-39
2022/06/15 02:44:03;;;;;;;2.95;1.50;;;;;;;13.77;91.72;98745.88;5029156;28;20076;-36
2022/06/15 02:46:33;;;;;;;2.22;1.42;;;;;;;13.77;86.41;98748.50;5018497;28;20048;-36
2022/06/15 02:49:00;;;;;;;7.72;1.88;;;;;;;13.76;88.33;98746.84;5049733;28;20048;-36
2022/06/15 02:51:39;;;;;;;3.63;1.40;;;;;;;13.75;85.60;98749.53;5014244;28;20037;-38
2022/06/15 02:54:15;;;;;;;3.08;1.38;;;;;;;13.73;85.37;98740.94;5049178;28;20040;-37
2022/06/15 02:56:43;;;;;;;2.25;1.30;;;;;;;13.72;84.35;98762.78;5039460;28;20033;-36
2022/06/15 02:59:09;;;;;;;2.55;1.33;;;;;;;13.71;82.96;98748.06;5063391;28;20556;-37
2022/06/15 03:01:39;;;;;;;2.60;1.52;;;;;;;13.70;84.90;98747.22;5039730;28;20053;-37
2022/06/15 03:04:06;;;;;;;3.95;1.38;;;;;;;13.75;85.35;98739.09;5021847;28;20610;-37
2022/06/15 03:06:32;;;;;;;5.55;1.67;;;;;;;13.76;91.68;98741.63;5037466;28;20049;-36
2022/06/15 03:09:06;;;;;;;3.97;1.50;;;;;;;13.68;85.52;98728.19;5030533;28;20068;-36
2022/06/15 03:11:40;;;;;;;1.90;1.33;;;;;;;13.75;82.06;98747.78;5037254;28;20073;-37
2022/06/15 03:14:16;;;;;;;2.65;1.40;;;;;;;13.74;82.65;98745.25;5034222;28;20544;-37
2022/06/15 03:16:47;;;;;;;4.20;1.67;;;;;;;13.74;83.53;98740.84;5013347;28;20037;-37
2022/06/15 03:19:14;;;;;;;3.40;1.55;;;;;;;13.78;82.33;98739.72;5014823;28;20556;-38
2022/06/15 03:21:41;;;;;;;5.18;1.60;;;;;;;13.79;83.85;98751.84;5034141;28;20040;-41
2022/06/15 03:24:07;;;;;;;5.50;1.75;;;;;;;13.80;84.05;98750.09;5048454;28;20051;-37
2022/06/15 03:26:33;;;;;;;5.35;1.45;;;;;;;13.80;83.13;98755.31;5037840;28;20045;-37
2022/06/15 03:29:00;;;;;;;3.40;1.52;;;;;;;13.73;82.28;98748.78;5039072;28;20593;-37
2022/06/15 03:31:29;;;;;;;7.20;2.05;;;;;;;13.79;85.39;98762.31;5048175;28;20535;-37
2022/06/15 03:33:55;;;;;;;3.47;1.40;;;;;;;13.85;87.62;98764.53;5049878;28;20094;-38
2022/06/15 03:36:23;;;;;;;2.55;1.40;;;;;;;13.88;86.42;98764.34;5036392;28;20505;-36
2022/06/15 03:38:48;;;;;;;2.83;1.23;;;;;;;13.91;84.72;98774.63;5030719;28;20095;-36
2022/06/15 03:41:25;;;;;;;5.30;1.50;;;;;;;13.67;82.63;98726.50;5029533;28;20496;-37
2022/06/15 03:43:53;;;;;;;3.58;1.40;;;;;;;13.80;83.96;98761.38;5028624;28;20429;-37
2022/06/15 03:46:23;;;;;;;5.25;1.60;;;;;;;13.71;82.41;98763.72;5029163;28;20107;-37
2022/06/15 03:48:51;;;;;;;1.98;1.30;;;;;;;13.69;82.25;98770.81;5029610;28;20060;-36
2022/06/15 03:51:17;;;;;;;1.98;1.58;;;;;;;13.71;83.49;98766.34;5029005;28;20476;-38
2022/06/15 03:53:58;;;;;;;3.17;1.02;;;;;;;13.70;81.46;98772.50;5028634;28;20049;-37
2022/06/15 03:56:42;;;;;;;1.58;1.10;;;;;;;13.65;81.32;98751.03;5029112;28;20052;-37
2022/06/15 03:59:10;;;;;;;5.95;2.00;;;;;;;13.67;80.97;98757.84;5026783;28;20432;-37
2022/06/15 04:01:37;;;;;;;3.53;1.20;;;;;;;13.73;85.33;98760.06;5012714;28;20121;-37
2022/06/15 04:04:03;;;;;;;2.25;1.30;;;;;;;13.72;80.77;98762.78;5013384;28;20041;-37
2022/06/15 04:06:31;;;;;;;1.80;1.10;;;;;;;13.73;80.75;98761.84;5028837;28;20052;-37
2022/06/15 04:08:57;;;;;;;2.55;1.30;;;;;;;13.74;81.75;98764.38;5028785;28;20088;-37
2022/06/15 04:14:33;;;;;;;3.80;1.58;;;;;;;13.77;82.25;98748.50;5047820;28;20052;-38
2022/06/15 04:17:20;;;;;;;5.65;1.50;;;;;;;13.92;79.67;98778.06;5013737;28;20040;-37
2022/06/15 04:22:54;;;;;;;2.50;1.17;;;;;;;13.95;80.68;98767.41;5027745;28;20124;-38
2022/06/15 04:25:20;;;;;;;3.10;1.05;;;;;;;14.00;80.03;98762.75;5028781;28;20053;-36
2022/06/15 04:27:46;;;;;;;2.92;1.10;;;;;;;14.14;78.68;98788.00;5038212;28;20037;-37
2022/06/15 04:30:14;;;;;;;6.25;1.30;;;;;;;14.11;79.81;98781.22;5031732;28;20041;-37
2022/06/15 04:32:45;;;;;;;2.08;1.02;;;;;;;14.10;77.91;98786.53;5040486;28;20483;-37
2022/06/15 04:35:10;;;;;;;1.40;0.90;;;;;;;14.04;80.97;98776.44;5017585;28;20045;-38
2022/06/15 04:37:37;;;;;;;2.08;1.05;;;;;;;14.06;77.40;98769.38;5021951;28;20052;-38
2022/06/15 04:40:13;;;;;;;4.93;1.15;;;;;;;14.12;75.89;98769.81;5027328;28;20044;-37
2022/06/15 04:42:40;;;;;;;1.40;1.10;;;;;;;14.13;76.07;98779.31;5049012;28;20041;-37
2022/06/15 04:45:08;;;;;;;5.03;1.35;;;;;;;14.20;77.98;98764.09;5030114;28;20048;-37
2022/06/15 04:47:38;;;;;;;2.95;0.73;;;;;;;14.39;75.52;98770.69;5028636;28;20099;-38
2022/06/15 04:50:05;;;;;;;3.30;1.45;;;;;;;14.49;77.42;98780.56;5012718;28;20041;-44
2022/06/15 04:52:39;;;;;;;4.97;0.90;;;;;;;14.50;73.72;98770.00;5027615;28;20473;-37
2022/06/15 04:55:05;;;;;;;1.90;1.15;;;;;;;14.68;76.30;98770.59;5032845;28;20124;-37
2022/06/15 04:57:31;;;;;;;1.45;0.80;;;;;;;14.76;72.83;98781.38;5040185;28;20033;-38
2022/06/15 04:59:57;;;;;;;3.20;1.10;;;;;;;14.78;74.32;98769.03;5030044;28;20541;-37
2022/06/15 05:02:23;;;;;;;1.90;1.23;;;;;;;14.73;72.96;98778.97;5027804;28;20052;-37
2022/06/15 05:04:49;;;;;;;3.60;0.85;;;;;;;14.73;71.62;98764.09;5028746;28;20033;-38
2022/06/15 05:07:14;;;;;;;0.60;0.50;;;;;;;14.69;69.83;98774.88;5032142;28;20529;-37
2022/06/15 05:09:41;;;;;;;2.58;1.02;;;;;;;14.79;70.33;98778.56;5043402;28;20419;-37
2022/06/15 05:12:08;;;;;;;5.65;1.02;;;;;;;14.94;70.66;98774.94;5031151;28;20454;-37
2022/06/15 05:14:37;;;;;;;2.88;0.88;;;;;;;15.09;69.58;98779.13;5084986;28;20369;-37
2022/06/15 05:17:05;;;;;;;4.53;0.87;;;;;;;15.04;67.63;98776.00;5036327;28;20452;-38
2022/06/15 05:19:31;;;;;;;1.85;0.80;;;;;;;15.16;67.59;98777.81;5043458;28;20045;-38
2022/06/15 05:21:58;;;;;;;2.05;0.80;;;;;;;15.10;67.56;98778.22;5030037;28;20040;-37
2022/06/15 05:24:23;;;;;;;2.22;0.80;;;;;;;15.24;67.29;98783.34;5032592;28;20037;-38
2022/06/15 05:26:56;;;;;;;3.67;0.88;;;;;;;15.45;67.88;98781.03;5032021;28;20512;-38
2022/06/15 05:29:22;;;;;;;3.10;1.48;;;;;;;15.44;70.19;98784.59;5034511;28;20090;-39
2022/06/15 05:31:54;;;;;;;1.48;0.82;;;;;;;15.49;65.99;98795.59;5025161;28;20049;-39
2022/06/15 05:34:20;;;;;;;3.33;0.90;;;;;;;15.44;65.98;98787.22;5034267;28;20053;-47
2022/06/15 05:36:45;;;;;;;1.50;0.90;;;;;;;15.39;66.34;98793.72;5048446;28;20127;-39
2022/06/15 05:39:13;;;;;;;1.55;0.70;;;;;;;15.41;65.93;98803.16;5012269;28;20517;-39
2022/06/15 05:41:41;;;;;;;1.75;0.70;;;;;;;15.31;67.15;98807.34;5047605;28;20080;-39
2022/06/15 05:46:44;;;;;;;0.98;0.65;;;;;;;15.45;65.18;98794.13;5012010;28;20541;-39
2022/06/15 05:49:28;;;;;;;2.30;0.65;;;;;;;15.30;65.09;98805.66;5023045;28;20487;-37
2022/06/15 05:51:55;;;;;;;1.73;0.90;;;;;;;15.30;66.19;98812.69;5036388;28;20128;-39
2022/06/15 05:54:23;;;;;;;3.45;1.10;;;;;;;15.48;68.29;98798.34;5014522;28;20041;-38
2022/06/15 05:56:48;;;;;;;3.83;0.75;;;;;;;15.62;65.74;98813.97;5031919;28;20071;-39
2022/06/15 05:59:14;;;;;;;3.78;0.95;;;;;;;15.62;66.13;98804.34;5032044;28;20425;-38
2022/06/15 06:01:41;;;;;;;3.58;0.88;;;;;;;15.79;64.63;98799.72;5028480;28;20041;-38
2022/06/15 06:04:07;;;;;;;4.28;1.10;;;;;;;15.73;64.32;98790.50;5032411;28;20574;-45
2022/06/15 06:06:33;;;;;;;3.15;0.93;;;;;;;15.79;64.71;98797.94;5032288;28;20045;-38
2022/06/15 06:08:59;;;;;;;2.25;0.75;;;;;;;15.84;63.72;98792.38;5028294;28;20402;-40
2022/06/15 06:11:26;;;;;;;4.63;0.80;;;;;;;15.98;63.45;98774.72;5032159;28;20069;-39
2022/06/15 06:13:52;;;;;;;1.38;1.00;;;;;;;16.30;62.20;98803.91;5032087;28;20052;-39
2022/06/15 06:16:18;;;;;;;2.58;0.60;;;;;;;16.34;60.88;98797.47;5032166;28;20041;-38
2022/06/15 06:18:44;;;;;;;2.33;0.73;;;;;;;16.19;61.57;98797.75;5030792;28;20513;-39
2022/06/15 06:21:10;;;;;;;2.38;0.80;;;;;;;16.14;61.00;98803.31;5032076;28;20045;-39
2022/06/15 06:23:36;;;;;;;1.67;0.80;;;;;;;15.93;62.25;98804.81;5030928;28;20563;-39
2022/06/15 06:26:06;;;;;;;1.67;0.98;;;;;;;15.82;62.90;98796.88;5031887;28;20033;-39
2022/06/15 06:28:38;;;;;;;2.63;0.68;;;;;;;15.70;63.19;98800.38;5013387;28;20490;-39
2022/06/15 06:31:05;;;;;;;3.53;0.80;;;;;;;15.66;63.55;98797.94;5029914;28;20037;-38
2022/06/15 06:33:32;;;;;;;2.03;0.82;;;;;;;15.70;63.77;98803.81;5030652;28;20060;-39
2022/06/15 06:36:00;;;;;;;2.65;1.45;;;;;;;15.85;63.11;98801.91;5030598;28;20044;-39
2022/06/15 06:38:26;;;;;;;1.60;0.52;;;;;;;15.89;62.42;98796.34;5031895;28;20052;-39
2022/06/15 06:40:53;;;;;;;10.40;1.00;;;;;;;16.23;60.75;98807.06;5031740;28;20042;-39
2022/06/15 06:43:19;;;;;;;2.45;0.73;;;;;;;17.15;58.04;98802.03;5030906;28;20045;-39
2022/06/15 06:45:45;;;;;;;2.05;1.15;;;;;;;17.38;56.83;98802.94;5031573;28;20150;-39
2022/06/15 06:48:11;;;;;;;4.57;0.73;;;;;;;17.19;57.06;98804.31;5031440;28;20197;-39
2022/06/15 06:50:39;;;;;;;2.80;0.90;;;;;;;17.00;57.64;98808.44;5030086;28;20044;-38
2022/06/15 06:53:05;;;;;;;1.92;0.43;;;;;;;17.24;55.77;98796.94;5031515;28;20175;-38
2022/06/15 06:55:31;;;;;;;1.17;0.70;;;;;;;17.76;54.52;98787.69;5030848;28;20037;-38
2022/06/15 06:57:58;;;;;;;2.88;0.50;;;;;;;17.62;54.92;98798.47;5020674;28;20048;-38
2022/06/15 07:00:25;;;;;;;1.38;0.90;;;;;;;17.62;55.58;98795.84;5022760;28;20136;-38
2022/06/15 07:02:51;;;;;;;4.45;0.60;;;;;;;17.44;55.94;98807.72;5031890;28;20460;-40
2022/06/15 07:05:17;;;;;;;5.00;0.90;;;;;;;17.24;56.46;98802.19;5030508;28;20401;-39
2022/06/15 07:07:43;;;;;;;3.15;1.52;;;;;;;17.45;55.63;98815.47;5030029;28;20044;-39
2022/06/15 07:10:10;;;;;;;2.45;1.38;;;;;;;19.22;51.52;98818.81;5030864;28;20045;-39
2022/06/15 07:12:38;;;;;;;3.75;1.00;;;;;;;20.23;48.65;98811.88;5031197;28;20116;-38
2022/06/15 07:15:05;;;;;;;4.40;0.82;;;;;;;20.24;47.89;98810.91;5031454;28;20122;-38
2022/06/15 07:17:31;;;;;;;4.30;0.77;;;;;;;19.62;49.28;98815.50;5031427;28;20037;-38
2022/06/15 07:19:57;;;;;;;2.58;1.00;;;;;;;19.63;49.16;98810.06;5028818;28;20403;-38
2022/06/15 07:22:23;;;;;;;0.93;0.50;;;;;;;18.92;50.37;98816.09;5028650;28;20043;-39
2022/06/15 07:24:49;;;;;;;2.40;0.50;;;;;;;18.30;51.46;98835.16;5030292;28;20041;-38
2022/06/15 07:27:17;;;;;;;2.60;0.60;;;;;;;17.85;52.88;98805.38;5029971;28;20054;-39
2022/06/15 07:29:46;;;;;;;2.72;1.02;;;;;;;18.79;51.53;98824.16;5029102;28;20456;-39
2022/06/15 07:32:13;;;;;;;2.10;0.75;;;;;;;20.18;48.08;98821.97;5031332;28;20102;-39
2022/06/15 07:34:40;;;;;;;4.72;0.95;;;;;;;21.56;44.86;98808.63;5031297;28;20063;-39
2022/06/15 07:37:07;;;;;;;3.78;0.70;;;;;;;22.59;41.77;98830.47;5030680;28;20041;-40
2022/06/15 07:39:33;;;;;;;1.33;0.90;;;;;;;22.20;42.43;98829.84;5036780;28;20045;-41
2022/06/15 07:41:59;;;;;;;4.30;1.10;;;;;;;23.67;40.39;98826.78;5030695;28;20103;-39
2022/06/15 07:44:26;;;;;;;4.18;1.08;;;;;;;25.07;37.98;98827.00;5030859;28;20041;-39
2022/06/15 07:49:54;;;;;;;3.03;0.80;;;;;;;24.71;36.63;98833.56;5029521;28;20513;-39
2022/06/15 07:49:54;;;;;;;0.80;0.70;;;;;;;23.46;38.63;98820.03;5030068;28;20033;-39
2022/06/15 07:52:32;;;;;;;2.47;0.80;;;;;;;23.17;39.46;98820.28;5028749;28;20048;-39
2022/06/15 07:54:58;;;;;;;0.70;0.70;;;;;;;24.45;37.65;98834.50;5029341;28;20120;-39
2022/06/15 07:57:24;;;;;;;2.95;0.63;;;;;;;23.16;38.31;98826.56;5028129;28;20128;-40
2022/06/15 07:59:50;;;;;;;1.88;0.88;;;;;;;23.69;38.42;98830.97;5028751;28;20064;-39
2022/06/15 08:02:17;;;;;;;1.77;0.63;;;;;;;22.93;39.25;98835.13;5027917;28;20041;-39
2022/06/15 08:04:42;;;;;;;2.78;0.70;;;;;;;21.88;41.18;98842.59;5032911;28;20053;-38
2022/06/15 08:07:10;;;;;;;1.30;0.50;;;;;;;21.50;41.69;98835.63;5029253;28;20118;-38
2022/06/15 08:09:37;;;;;;;0.60;0.57;;;;;;;20.59;43.80;98841.28;5030084;28;20029;-39
2022/06/15 08:12:14;;;;;;;2.78;0.50;;;;;;;20.07;45.08;98837.06;5029921;28;20076;-39
2022/06/15 08:14:55;;;;;;;5.68;1.05;;;;;;;19.70;45.74;98842.03;5030445;28;20052;-38
2022/06/15 08:17:25;;;;;;;4.47;1.00;;;;;;;19.41;46.67;98841.84;5029893;28;20499;-40
2022/06/15 08:19:58;;;;;;;3.50;0.85;;;;;;;19.10;47.30;98855.91;5030549;28;20124;-39
2022/06/15 08:22:25;;;;;;;3.00;0.73;;;;;;;18.60;49.05;98851.16;5029020;28;20095;-39
2022/06/15 08:24:51;;;;;;;4.05;0.80;;;;;;;18.56;49.50;98847.09;5029011;28;20072;-39
2022/06/15 08:27:18;;;;;;;2.13;0.82;;;;;;;18.49;49.68;98835.34;5029198;28;20123;-40
2022/06/15 08:29:46;;;;;;;3.50;0.80;;;;;;;18.68;49.73;98850.53;5009270;28;20129;-38
2022/06/15 08:32:12;;;;;;;7.80;0.90;;;;;;;19.11;48.74;98853.13;5027906;28;20493;-38
2022/06/15 08:34:39;;;;;;;3.05;0.88;;;;;;;18.98;48.87;98858.56;5030324;28;20059;-38
2022/06/15 08:37:07;;;;;;;6.57;1.60;;;;;;;18.80;49.06;98843.41;5028979;28;20041;-39
2022/06/15 08:39:35;;;;;;;2.05;0.80;;;;;;;18.55;50.12;98849.84;5029568;28;20049;-38
2022/06/15 08:42:09;;;;;;;2.88;0.55;;;;;;;18.42;50.26;98871.00;5032045;28;20113;-38
2022/06/15 08:44:41;;;;;;;2.55;0.65;;;;;;;18.36;50.59;98868.88;5034108;28;20548;-38
2022/06/15 08:47:34;;;;;;;0.70;0.70;;;;;;;19.81;47.74;98856.00;5032717;28;20116;-39
2022/06/15 08:50:08;;;;;;;2.03;0.98;;;;;;;22.10;42.77;98859.97;5043389;28;20045;-38
2022/06/15 08:52:39;;;;;;;0.90;0.80;;;;;;;22.92;41.75;98858.19;5053970;28;20044;-39
2022/06/15 08:55:09;;;;;;;2.08;0.80;;;;;;;22.63;41.52;98847.72;5053992;28;20432;-37
2022/06/15 08:57:52;;;;;;;4.68;0.60;;;;;;;22.11;41.84;98857.19;5053949;28;20122;-38
2022/06/15 09:00:20;;;;;;;3.60;0.70;;;;;;;21.20;43.91;98873.63;5052747;28;20056;-39
2022/06/15 09:03:05;;;;;;;1.60;0.60;;;;;;;20.26;45.68;98858.25;5035908;28;20040;-39
2022/06/15 09:06:00;;;;;;;3.10;0.65;;;;;;;19.88;47.12;98853.66;5053915;28;20037;-39
2022/06/15 09:08:25;;;;;;;3.08;1.00;;;;;;;20.15;46.41;98866.28;5035825;28;20091;-39
2022/06/15 09:10:53;;;;;;;0.82;0.80;;;;;;;22.36;42.30;98856.53;5033882;28;20401;-40
2022/06/15 09:13:43;;;;;;;3.70;1.10;;;;;;;24.06;39.42;98854.59;5032700;28;20041;-40
2022/06/15 09:16:31;;;;;;;3.08;1.25;;;;;;;24.76;36.47;98857.84;5032594;28;20041;-38
2022/06/15 09:19:02;;;;;;;1.10;0.65;;;;;;;24.26;37.26;98856.03;5032279;28;20481;-38
2022/06/15 09:21:32;;;;;;;1.80;0.70;;;;;;;22.78;40.27;98853.38;5031047;28;20037;-39
2022/06/15 09:24:16;;;;;;;2.45;0.60;;;;;;;22.04;42.04;98856.09;5020934;28;20048;-41
2022/06/15 09:26:49;;;;;;;4.15;0.70;;;;;;;21.13;43.53;98856.66;5032529;28;20471;-41
2022/06/15 09:29:23;;;;;;;0.68;0.50;;;;;;;20.32;45.45;98864.84;5033073;28;20038;-39
2022/06/15 09:31:58;;;;;;;9.05;1.00;;;;;;;20.96;44.72;98857.31;5032727;28;20164;-41
2022/06/15 09:34:43;;;;;;;4.97;0.70;;;;;;;20.84;44.19;98877.75;5064383;28;20060;-39
2022/06/15 09:37:14;;;;;;;1.60;0.60;;;;;;;20.27;45.08;98865.22;5032459;28;20429;-39
2022/06/15 09:39:40;;;;;;;1.05;0.93;;;;;;;19.82;46.27;98876.13;5032380;28;20184;-40
2022/06/15 09:42:09;;;;;;;1.00;0.50;;;;;;;19.68;46.70;98878.28;5013278;28;20057;-40
2022/06/15 09:44:36;;;;;;;;;;;;;;;19.64;47.08;98875.03;5013947;28;20050;-40
2022/06/15 09:47:46;;;;;;;2.45;0.75;;;;;;;19.52;47.83;98867.34;5013672;28;19917;-40
2022/06/15 09:50:23;;;;;;;1.77;0.68;;;;;;;19.38;48.06;98879.81;5015021;28;20068;-39
2022/06/15 09:53:03;;;;;;;3.08;0.70;;;;;;;19.25;48.43;98876.56;5044632;28;20045;-40
2022/06/15 09:55:33;;;;;;;6.65;0.73;;;;;;;19.34;48.71;98877.56;5013120;28;20041;-40
2022/06/15 09:58:00;;;;;;;2.28;0.60;;;;;;;19.54;48.13;98875.94;5044458;28;20045;-39
2022/06/15 10:00:25;;;;;;;4.72;1.05;;;;;;;19.88;47.48;98875.63;5028262;28;20120;-39
2022/06/15 10:03:02;;;;;;;3.33;0.85;;;;;;;20.21;46.69;98874.50;5044710;28;20180;-39
2022/06/15 10:05:40;;;;;;;1.33;0.70;;;;;;;20.12;46.58;98874.47;5013088;28;20498;-39
2022/06/15 10:08:10;;;;;;;3.25;0.73;;;;;;;20.09;46.94;98882.66;5026616;28;20394;-39
2022/06/15 10:10:44;;;;;;;1.77;0.73;;;;;;;19.93;47.45;98892.84;5031594;28;20386;-38
2022/06/15 10:13:18;;;;;;;0.60;0.60;;;;;;;19.96;46.60;98887.28;5031448;28;20069;-40
2022/06/15 10:15:44;;;;;;;2.15;0.70;;;;;;;20.26;46.29;98890.78;5032391;28;20471;-40
2022/06/15 10:18:31;;;;;;;3.88;0.80;;;;;;;20.45;45.71;98883.94;5032317;28;20041;-40
2022/06/15 10:21:19;;;;;;;2.07;0.70;;;;;;;21.45;43.90;98873.09;5032306;28;20037;-39
2022/06/15 10:24:09;;;;;;;4.72;0.50;;;;;;;21.63;43.13;98888.22;5031195;28;20041;-40
2022/06/15 10:26:41;;;;;;;2.28;0.70;;;;;;;22.15;41.73;98884.22;5064414;28;20505;-39
2022/06/15 10:29:18;;;;;;;1.80;0.70;;;;;;;21.94;42.19;98889.72;5032259;28;20029;-39
2022/06/15 10:31:58;;;;;;;6.93;0.75;;;;;;;21.63;42.72;98893.50;5047253;28;20519;-40
2022/06/15 10:34:33;;;;;;;2.70;1.05;;;;;;;21.20;43.87;98876.28;5032167;28;20041;-39
2022/06/15 10:37:04;;;;;;;1.42;0.70;;;;;;;21.14;44.22;98884.78;5031947;28;20045;-40
2022/06/15 10:39:35;;;;;;;2.97;1.50;;;;;;;21.24;44.46;98875.06;5051998;28;20137;-41
2022/06/15 10:42:07;;;;;;;1.75;0.90;;;;;;;21.75;43.02;98882.63;5034380;28;20045;-41
2022/06/15 10:44:36;;;;;;;6.90;1.42;;;;;;;21.65;43.46;98899.50;5052158;28;20037;-40
2022/06/15 10:47:07;;;;;;;;;;;;;;;21.25;43.63;98894.41;5050926;28;20419;-39
2022/06/15 10:49:36;;;;;;;1.58;0.70;;;;;;;20.79;44.19;98893.19;5051907;28;20380;-40
2022/06/15 10:52:02;;;;;;;;;;;;;;;20.55;45.04;98887.44;5034493;28;20045;-41
2022/06/15 11:03:24;;;;;;;3.40;0.85;;;;;;;20.08;46.04;98910.84;5031646;28;20052;-39
2022/06/15 11:05:52;;;;;;;5.38;1.30;;;;;;;21.81;43.11;98920.94;5012956;28;20044;-40
2022/06/15 11:08:30;;;;;;;2.17;0.98;;;;;;;22.40;39.96;98905.56;5025962;28;20041;-40
2022/06/15 11:11:24;;;;;;;3.28;0.80;;;;;;;22.58;39.98;98896.84;5026909;28;20065;-39
2022/06/15 11:13:56;;;;;;;1.75;0.80;;;;;;;22.08;41.30;98899.03;5010394;28;20045;-39
2022/06/15 11:19:22;;;;;;;;;;;;;;;21.01;43.13;98900.03;5031915;28;20051;-39
2022/06/15 11:21:57;;;;;;;6.18;0.98;;;;;;;20.50;44.35;98922.19;5029860;28;19917;-41
2022/06/15 11:24:29;;;;;;;1.38;0.70;;;;;;;20.12;45.12;98904.34;5027464;28;20037;-40
2022/06/15 11:27:11;;;;;;;3.33;0.80;;;;;;;19.79;46.32;98905.38;5048272;28;20044;-39
2022/06/15 11:29:53;;;;;;;5.40;0.93;;;;;;;19.52;47.31;98898.97;5021763;28;20037;-40
2022/06/15 11:32:45;;;;;;;4.63;1.50;;;;;;;19.47;47.77;98915.16;5029199;28;20056;-39
2022/06/15 11:35:14;;;;;;;1.63;0.82;;;;;;;19.53;47.85;98916.44;5029332;28;20033;-40
2022/06/15 11:38:23;;;;;;;5.85;1.15;;;;;;;19.69;47.48;98916.84;5031040;28;20526;-39
2022/06/15 11:41:01;;;;;;;2.83;0.90;;;;;;;19.85;47.45;98920.72;5014767;28;20164;-39
2022/06/15 11:43:37;;;;;;;4.53;1.00;;;;;;;19.82;47.44;98914.88;5029741;28;20037;-39
2022/06/15 11:46:18;;;;;;;2.63;1.38;;;;;;;19.80;47.77;98922.91;5029564;28;20567;-39
2022/06/15 11:49:25;;;;;;;3.28;1.00;;;;;;;20.27;46.90;98929.41;5030180;28;20056;-39
2022/06/15 11:52:12;;;;;;;2.30;1.00;;;;;;;21.28;44.78;98924.03;5029823;28;20140;-39
2022/06/15 11:55:14;;;;;;;2.20;0.90;;;;;;;21.35;44.69;98925.16;5031181;28;20128;-39
2022/06/15 11:58:06;;;;;;;3.85;1.35;;;;;;;23.62;40.57;98922.81;5031018;28;20099;-39
2022/06/15 12:00:38;;;;;;;4.18;1.33;;;;;;;24.86;37.52;98914.41;5030822;28;20128;-39
2022/06/15 12:03:31;;;;;;;1.80;1.17;;;;;;;25.60;36.07;98916.22;5029566;28;20041;-39
2022/06/15 12:06:11;;;;;;;4.10;1.20;;;;;;;25.85;35.33;98922.38;5029690;28;20044;-40
2022/06/15 12:08:51;;;;;;;2.38;1.30;;;;;;;24.99;36.29;98933.41;5029217;28;20045;-41
2022/06/15 12:14:52;;;;;;;2.97;1.00;;;;;;;23.10;39.91;98921.81;5011250;28;20050;-39
2022/06/15 12:17:41;;;;;;;2.38;0.80;;;;;;;22.81;40.84;98919.34;4997377;28;20417;-40
2022/06/15 12:20:16;;;;;;;;;;;;;;;22.69;41.00;98923.16;5015087;28;20072;-39